Trujillo, Peru
Current Conditions -  °F | °C
As of 9:00 PM on Monday 20 Oct 2014 (Local Time) from SPRU Reporting Station
Clear Clear  
Wind Chill: 64°   Ceiling: Unl
Heat Index: 64°   Visibility: 6mi
Dew Point: 59°   Wind: 10mph
Humidity: 83%   Direction: 140°SE
Pressure: 29.91"   Gusts: NA
Location:  8.11°S, 79.03°W
Report Text: SPRU 210200Z 14009KT CAVOK 18/15 Q1013 RMK PP000
Loading
Personal Weather Stations






























Interactive Weather Map
Tropical Storm Tracking
New forecast layout! Learn more

10-Day Weather Forecast

Advertisements
Track Severe Weather on mobile